createdAt,value
2018-09-22T00:00:00.000Z,19.3
2018-09-22T00:05:00.000Z,19.3
2018-09-22T00:10:00.000Z,19.3
2018-09-22T00:15:00.000Z,19.2
2018-09-22T00:20:00.000Z,19.2
2018-09-22T00:25:00.000Z,19.2
2018-09-22T00:30:00.000Z,19.2
2018-09-22T00:35:00.000Z,19.1
2018-09-22T00:40:00.000Z,19.1
2018-09-22T00:45:00.000Z,19.1
2018-09-22T00:50:00.000Z,19.1
2018-09-22T00:55:00.000Z,19.0
2018-09-22T01:00:00.000Z,18.6
2018-09-22T01:05:00.000Z,17.9
2018-09-22T01:10:00.000Z,17.5
2018-09-22T01:15:00.000Z,17.2
2018-09-22T01:20:00.000Z,16.7
2018-09-22T01:25:00.000Z,15.9
2018-09-22T01:30:00.000Z,15.2
2018-09-22T01:35:00.000Z,14.8
2018-09-22T01:40:00.000Z,14.4
2018-09-22T01:45:00.000Z,14.2
2018-09-22T01:50:00.000Z,14.0
2018-09-22T01:55:00.000Z,13.9
2018-09-22T02:00:00.000Z,13.8
2018-09-22T02:05:00.000Z,13.8
2018-09-22T02:10:00.000Z,13.7
2018-09-22T02:15:00.000Z,13.7
2018-09-22T02:20:00.000Z,13.7
2018-09-22T02:25:00.000Z,13.7
2018-09-22T02:30:00.000Z,13.6
2018-09-22T02:35:00.000Z,13.5
2018-09-22T02:40:00.000Z,13.4
2018-09-22T02:45:00.000Z,13.4
2018-09-22T02:50:00.000Z,13.3
2018-09-22T02:55:00.000Z,13.3
2018-09-22T03:00:00.000Z,13.3
2018-09-22T03:05:00.000Z,13.4
2018-09-22T03:10:00.000Z,13.4
2018-09-22T03:15:00.000Z,13.4
2018-09-22T03:20:00.000Z,13.5
2018-09-22T03:25:00.000Z,13.6
2018-09-22T03:30:00.000Z,13.7
2018-09-22T03:35:00.000Z,13.7
2018-09-22T03:41:00.000Z,13.7
2018-09-22T03:46:00.000Z,13.6
2018-09-22T03:51:00.000Z,13.6
2018-09-22T03:56:00.000Z,13.5
2018-09-22T04:01:00.000Z,13.5
2018-09-22T04:06:00.000Z,13.4
2018-09-22T04:11:00.000Z,13.4
2018-09-22T04:16:00.000Z,13.3
2018-09-22T04:21:00.000Z,13.3
2018-09-22T04:26:00.000Z,13.3
2018-09-22T04:31:00.000Z,13.2
2018-09-22T04:36:00.000Z,13.3
2018-09-22T04:41:00.000Z,13.2
2018-09-22T04:46:00.000Z,13.3
2018-09-22T04:51:00.000Z,13.3
2018-09-22T04:56:00.000Z,13.3
2018-09-22T05:01:00.000Z,13.3
2018-09-22T05:06:00.000Z,13.3
2018-09-22T05:11:00.000Z,13.3
2018-09-22T05:16:00.000Z,13.3
2018-09-22T05:21:00.000Z,13.3
2018-09-22T05:26:00.000Z,13.3
2018-09-22T05:31:00.000Z,13.3
2018-09-22T05:36:00.000Z,13.3
2018-09-22T05:41:00.000Z,13.3
2018-09-22T05:46:00.000Z,13.3
2018-09-22T05:51:00.000Z,13.2
2018-09-22T05:56:00.000Z,13.2
2018-09-22T06:01:00.000Z,13.2
2018-09-22T06:06:00.000Z,13.2
2018-09-22T06:11:00.000Z,13.2
2018-09-22T06:16:00.000Z,13.2
2018-09-22T06:21:00.000Z,13.3
2018-09-22T06:26:00.000Z,13.3
2018-09-22T06:31:00.000Z,13.3
2018-09-22T06:36:00.000Z,13.4
2018-09-22T06:41:00.000Z,13.4
2018-09-22T06:46:00.000Z,13.4
2018-09-22T06:51:00.000Z,13.5
2018-09-22T06:56:00.000Z,13.5
2018-09-22T07:01:00.000Z,13.6
2018-09-22T07:06:00.000Z,13.6
2018-09-22T07:11:00.000Z,13.6
2018-09-22T07:16:00.000Z,13.7
2018-09-22T07:21:00.000Z,13.8
2018-09-22T07:26:00.000Z,14.0
2018-09-22T07:31:00.000Z,14.1
2018-09-22T07:36:00.000Z,14.3
2018-09-22T07:41:00.000Z,14.4
2018-09-22T07:46:00.000Z,14.6
2018-09-22T07:51:00.000Z,14.7
2018-09-22T07:56:00.000Z,14.8
2018-09-22T08:01:00.000Z,14.8
2018-09-22T08:06:00.000Z,14.8
2018-09-22T08:11:00.000Z,14.9
2018-09-22T08:16:00.000Z,15.1
2018-09-22T08:21:00.000Z,15.3
2018-09-22T08:26:00.000Z,15.5
2018-09-22T08:31:00.000Z,15.5
2018-09-22T08:36:00.000Z,15.5
2018-09-22T08:41:00.000Z,15.5
2018-09-22T08:46:00.000Z,15.5
2018-09-22T08:51:00.000Z,15.5
2018-09-22T08:56:00.000Z,15.5
2018-09-22T09:01:00.000Z,15.5
2018-09-22T09:06:00.000Z,15.5
2018-09-22T09:11:00.000Z,15.6
2018-09-22T09:16:00.000Z,15.7
2018-09-22T09:21:00.000Z,15.9
2018-09-22T09:26:00.000Z,16.0
2018-09-22T09:32:00.000Z,16.1
2018-09-22T09:37:00.000Z,16.2
2018-09-22T09:42:00.000Z,16.4
2018-09-22T09:47:00.000Z,16.6
2018-09-22T09:52:00.000Z,16.7
2018-09-22T09:57:00.000Z,16.8
2018-09-22T10:02:00.000Z,16.9
2018-09-22T10:07:00.000Z,17.0
2018-09-22T10:12:00.000Z,17.1
2018-09-22T10:17:00.000Z,17.1
2018-09-22T10:22:00.000Z,17.1
2018-09-22T10:27:00.000Z,17.1
2018-09-22T10:32:00.000Z,17.0
2018-09-22T10:37:00.000Z,17.2
2018-09-22T10:42:00.000Z,17.3
2018-09-22T10:47:00.000Z,17.2
2018-09-22T10:52:00.000Z,17.3
2018-09-22T10:57:00.000Z,17.4
2018-09-22T11:02:00.000Z,17.3
2018-09-22T11:07:00.000Z,17.3
2018-09-22T11:12:00.000Z,17.4
2018-09-22T11:17:00.000Z,17.6
2018-09-22T11:22:00.000Z,17.6
2018-09-22T11:27:00.000Z,17.6
2018-09-22T11:32:00.000Z,17.7
2018-09-22T11:37:00.000Z,17.6
2018-09-22T11:42:00.000Z,17.6
2018-09-22T11:47:00.000Z,17.7
2018-09-22T11:52:00.000Z,17.8
2018-09-22T11:57:00.000Z,17.8
2018-09-22T12:02:00.000Z,17.7
2018-09-22T12:07:00.000Z,17.7
2018-09-22T12:12:00.000Z,17.8
2018-09-22T12:17:00.000Z,17.9
2018-09-22T12:22:00.000Z,17.9
2018-09-22T12:27:00.000Z,18.0
2018-09-22T12:32:00.000Z,18.1
2018-09-22T12:37:00.000Z,18.2
2018-09-22T12:42:00.000Z,18.2
2018-09-22T12:47:00.000Z,18.2
2018-09-22T12:52:00.000Z,18.2
2018-09-22T12:57:00.000Z,18.3
2018-09-22T13:02:00.000Z,18.3
2018-09-22T13:07:00.000Z,18.4
2018-09-22T13:12:00.000Z,18.6
2018-09-22T13:17:00.000Z,18.6
2018-09-22T13:22:00.000Z,18.5
2018-09-22T13:27:00.000Z,18.4
2018-09-22T13:32:00.000Z,18.4
2018-09-22T13:37:00.000Z,18.4
2018-09-22T13:42:00.000Z,18.4
2018-09-22T13:47:00.000Z,18.6
2018-09-22T13:52:00.000Z,18.7
2018-09-22T13:57:00.000Z,18.7
2018-09-22T14:02:00.000Z,18.6
2018-09-22T14:07:00.000Z,18.6
2018-09-22T14:12:00.000Z,18.5
2018-09-22T14:17:00.000Z,18.6
2018-09-22T14:22:00.000Z,18.6
2018-09-22T14:27:00.000Z,18.6
2018-09-22T14:32:00.000Z,18.5
2018-09-22T14:37:00.000Z,18.5
2018-09-22T14:42:00.000Z,18.4
2018-09-22T14:47:00.000Z,18.3
2018-09-22T14:52:00.000Z,18.2
2018-09-22T14:57:00.000Z,18.1
2018-09-22T15:02:00.000Z,17.9
2018-09-22T15:07:00.000Z,17.9
2018-09-22T15:12:00.000Z,17.9
2018-09-22T15:17:00.000Z,17.9
2018-09-22T15:22:00.000Z,18.0
2018-09-22T15:27:00.000Z,18.1
2018-09-22T15:32:00.000Z,18.2
2018-09-22T15:37:00.000Z,18.2
2018-09-22T15:42:00.000Z,18.1
2018-09-22T15:47:00.000Z,18.0
2018-09-22T15:53:00.000Z,18.0
2018-09-22T15:58:00.000Z,17.9
2018-09-22T16:03:00.000Z,17.8
2018-09-22T16:08:00.000Z,17.8
2018-09-22T16:13:00.000Z,17.8
2018-09-22T16:18:00.000Z,17.7
2018-09-22T16:23:00.000Z,17.6
2018-09-22T16:28:00.000Z,17.5
2018-09-22T16:33:00.000Z,17.4
2018-09-22T16:38:00.000Z,17.4
2018-09-22T16:43:00.000Z,17.3
2018-09-22T16:48:00.000Z,17.3
2018-09-22T16:53:00.000Z,17.2
2018-09-22T16:58:00.000Z,17.2
2018-09-22T17:03:00.000Z,17.1
2018-09-22T17:08:00.000Z,17.1
2018-09-22T17:13:00.000Z,17.1
2018-09-22T17:18:00.000Z,17.0
2018-09-22T17:23:00.000Z,17.0
2018-09-22T17:28:00.000Z,17.0
2018-09-22T17:33:00.000Z,17.0
2018-09-22T17:38:00.000Z,17.0
2018-09-22T17:43:00.000Z,17.0
2018-09-22T17:48:00.000Z,16.9
2018-09-22T17:53:00.000Z,16.9
2018-09-22T17:58:00.000Z,16.9
2018-09-22T18:03:00.000Z,16.9
2018-09-22T18:08:00.000Z,16.9
2018-09-22T18:13:00.000Z,16.9
2018-09-22T18:18:00.000Z,16.8
2018-09-22T18:23:00.000Z,16.8
2018-09-22T18:28:00.000Z,16.8
2018-09-22T18:33:00.000Z,16.9
2018-09-22T18:38:00.000Z,16.9
2018-09-22T18:43:00.000Z,16.9
2018-09-22T18:48:00.000Z,16.8
2018-09-22T18:53:00.000Z,16.8
2018-09-22T18:58:00.000Z,16.8
2018-09-22T19:03:00.000Z,16.7
2018-09-22T19:08:00.000Z,16.7
2018-09-22T19:13:00.000Z,16.7
2018-09-22T19:18:00.000Z,16.7
2018-09-22T19:23:00.000Z,16.7
2018-09-22T19:28:00.000Z,16.7
2018-09-22T19:33:00.000Z,16.7
2018-09-22T19:38:00.000Z,16.6
2018-09-22T19:43:00.000Z,16.6
2018-09-22T19:48:00.000Z,16.5
2018-09-22T19:53:00.000Z,16.5
2018-09-22T19:58:00.000Z,16.5
2018-09-22T20:03:00.000Z,16.5
2018-09-22T20:08:00.000Z,16.5
2018-09-22T20:13:00.000Z,16.6
2018-09-22T20:18:00.000Z,16.6
2018-09-22T20:23:00.000Z,16.6
2018-09-22T20:28:00.000Z,16.6
2018-09-22T20:33:00.000Z,16.6
2018-09-22T20:38:00.000Z,16.5
2018-09-22T20:43:00.000Z,16.5
2018-09-22T20:48:00.000Z,16.5
2018-09-22T20:53:00.000Z,16.4
2018-09-22T20:58:00.000Z,16.4
2018-09-22T21:03:00.000Z,16.4
2018-09-22T21:08:00.000Z,16.4
2018-09-22T21:13:00.000Z,16.4
2018-09-22T21:18:00.000Z,16.4
2018-09-22T21:23:00.000Z,16.4
2018-09-22T21:28:00.000Z,16.4
2018-09-22T21:33:00.000Z,16.4
2018-09-22T21:38:00.000Z,16.4
2018-09-22T21:43:00.000Z,16.3
2018-09-22T21:48:00.000Z,16.3
2018-09-22T21:53:00.000Z,16.3
2018-09-22T21:59:00.000Z,16.3
2018-09-22T22:04:00.000Z,16.3
2018-09-22T22:09:00.000Z,16.3
2018-09-22T22:14:00.000Z,16.4
2018-09-22T22:19:00.000Z,16.4
2018-09-22T22:24:00.000Z,16.4
2018-09-22T22:29:00.000Z,16.4
2018-09-22T22:34:00.000Z,16.3
2018-09-22T22:39:00.000Z,16.2
2018-09-22T22:44:00.000Z,16.2
2018-09-22T22:49:00.000Z,16.1
2018-09-22T22:54:00.000Z,16.0
2018-09-22T22:59:00.000Z,15.9
2018-09-22T23:04:00.000Z,15.9
2018-09-22T23:09:00.000Z,15.9
2018-09-22T23:14:00.000Z,15.9
2018-09-22T23:19:00.000Z,15.8
2018-09-22T23:24:00.000Z,15.7
2018-09-22T23:29:00.000Z,15.7
2018-09-22T23:34:00.000Z,15.6
2018-09-22T23:39:00.000Z,15.6
2018-09-22T23:44:00.000Z,15.6
2018-09-22T23:49:00.000Z,15.6
2018-09-22T23:54:00.000Z,15.6
2018-09-22T23:59:00.000Z,15.6
